createdAt,value
2019-04-16T00:01:25.228Z,61.44
2019-04-16T00:03:56.805Z,61.79
2019-04-16T00:06:28.520Z,62.16
2019-04-16T00:09:00.063Z,62.38
2019-04-16T00:11:34.358Z,62.78
2019-04-16T00:14:17.876Z,62.63
2019-04-16T00:16:47.888Z,62.66
2019-04-16T00:19:17.859Z,62.56
2019-04-16T00:21:49.435Z,62.79
2019-04-16T00:24:21.050Z,62.83
2019-04-16T00:26:51.646Z,63.24
2019-04-16T00:29:21.676Z,63.67
2019-04-16T00:31:53.322Z,63.72
2019-04-16T00:34:23.350Z,64.15
2019-04-16T00:36:53.365Z,64.49
2019-04-16T00:39:24.796Z,64.74
2019-04-16T00:41:55.464Z,64.79
2019-04-16T00:44:25.576Z,64.95
2019-04-16T00:46:55.484Z,65.18
2019-04-16T00:49:26.576Z,65.78
2019-04-16T00:51:57.150Z,65.93
2019-04-16T00:54:27.196Z,66.00
2019-04-16T00:56:57.132Z,66.79
2019-04-16T00:59:27.170Z,66.96
2019-04-16T01:01:57.108Z,67.61
2019-04-16T01:04:27.131Z,67.87
2019-04-16T01:06:57.143Z,67.87
2019-04-16T01:09:27.176Z,68.05
2019-04-16T01:11:57.182Z,67.59
2019-04-16T01:14:27.482Z,67.33
2019-04-16T01:16:57.639Z,67.70
2019-04-16T01:19:27.679Z,67.74
2019-04-16T01:21:57.622Z,68.02
2019-04-16T01:24:27.594Z,68.31
2019-04-16T01:26:59.055Z,68.63
2019-04-16T01:29:33.659Z,68.95
2019-04-16T01:32:18.753Z,69.33
2019-04-16T01:40:50.948Z,69.48
2019-04-16T01:43:25.518Z,69.56
2019-04-16T01:45:52.663Z,69.61
2019-04-16T01:48:22.603Z,69.56
2019-04-16T01:50:52.644Z,70.14
2019-04-16T01:53:22.582Z,70.16
2019-04-16T01:55:56.746Z,70.48
2019-04-16T01:58:24.270Z,70.87
2019-04-16T02:00:54.242Z,70.70
2019-04-16T02:03:24.252Z,70.74
2019-04-16T02:05:54.863Z,70.77
2019-04-16T02:08:28.307Z,70.90
2019-04-16T02:10:57.340Z,71.11
2019-04-16T02:13:27.328Z,71.07
2019-04-16T02:15:57.259Z,71.43
2019-04-16T02:18:29.821Z,71.15
2019-04-16T02:20:58.872Z,70.61
2019-04-16T02:23:28.839Z,70.86
2019-04-16T02:25:58.802Z,71.20
2019-04-16T02:28:29.048Z,71.55
2019-04-16T02:30:59.279Z,70.80
2019-04-16T02:33:29.249Z,71.23
2019-04-16T02:35:59.188Z,72.35
2019-04-16T02:38:29.235Z,72.29
2019-04-16T02:40:59.167Z,72.63
2019-04-16T02:43:29.139Z,72.63
2019-04-16T02:45:59.178Z,72.38
2019-04-16T02:48:29.125Z,72.33
2019-04-16T02:51:07.318Z,72.24
2019-04-16T02:53:42.734Z,72.80
2019-04-16T02:56:20.052Z,73.08
2019-04-16T02:58:51.658Z,73.02
2019-04-16T03:01:23.309Z,72.98
2019-04-16T03:03:56.237Z,73.72
2019-04-16T03:06:31.484Z,74.53
2019-04-16T03:08:58.310Z,74.33
2019-04-16T03:11:28.246Z,74.27
2019-04-16T03:13:59.338Z,74.49
2019-04-16T03:16:43.235Z,73.97
2019-04-16T03:19:18.864Z,74.15
2019-04-16T03:21:46.518Z,74.58
2019-04-16T03:24:16.459Z,74.56
2019-04-16T03:26:47.635Z,74.13
2019-04-16T03:29:18.166Z,74.18
2019-04-16T03:31:48.120Z,73.82
2019-04-16T03:34:21.458Z,73.75
2019-04-16T03:36:49.721Z,74.42
2019-04-16T03:39:19.682Z,74.95
2019-04-16T03:41:49.624Z,75.96
2019-04-16T03:44:19.595Z,75.54
2019-04-16T03:46:49.535Z,75.87
2019-04-16T03:49:19.511Z,75.96
2019-04-16T03:51:49.456Z,76.14
2019-04-16T03:54:22.305Z,76.10
2019-04-16T03:56:51.072Z,76.63
2019-04-16T03:59:21.047Z,76.16
2019-04-16T04:01:51.057Z,75.91
2019-04-16T04:04:21.037Z,76.77
2019-04-16T04:06:50.973Z,77.24
2019-04-16T04:09:22.225Z,77.16
2019-04-16T04:11:52.584Z,76.91
2019-04-16T04:14:23.610Z,76.63
2019-04-16T04:16:53.872Z,76.17
2019-04-16T04:19:23.843Z,76.39
2019-04-16T04:21:54.490Z,75.60
2019-04-16T04:24:24.551Z,75.89
2019-04-16T04:26:54.489Z,76.35
2019-04-16T04:29:24.955Z,76.46
2019-04-16T04:31:55.296Z,75.63
2019-04-16T04:34:25.267Z,75.95
2019-04-16T04:36:58.724Z,76.06
2019-04-16T04:39:26.858Z,76.36
2019-04-16T04:41:57.259Z,75.77
2019-04-16T04:44:27.541Z,75.22
2019-04-16T04:46:57.529Z,75.37
2019-04-16T04:49:30.348Z,75.61
2019-04-16T04:51:59.290Z,75.49
2019-04-16T04:54:29.261Z,75.13
2019-04-16T04:57:00.241Z,75.24
2019-04-16T04:59:30.626Z,75.13
2019-04-16T05:02:01.378Z,74.67
2019-04-16T05:04:35.933Z,74.70
2019-04-16T05:07:08.624Z,74.63
2019-04-16T05:09:38.597Z,73.95
2019-04-16T05:12:08.711Z,74.39
2019-04-16T05:14:40.312Z,74.57
2019-04-16T05:17:10.283Z,74.51
2019-04-16T05:19:40.221Z,74.40
2019-04-16T05:22:10.205Z,74.20
2019-04-16T05:24:40.208Z,74.24
2019-04-16T05:27:10.274Z,74.12
2019-04-16T05:29:40.246Z,74.12
2019-04-16T05:32:10.246Z,73.71
2019-04-16T05:34:40.214Z,73.67
2019-04-16T05:37:10.165Z,73.20
2019-04-16T05:39:40.100Z,72.88
2019-04-16T05:42:10.078Z,72.45
2019-04-16T05:44:40.442Z,72.12
2019-04-16T05:47:10.465Z,71.61
2019-04-16T05:49:41.170Z,71.45
2019-04-16T05:52:11.278Z,70.66
2019-04-16T05:54:44.446Z,70.15
2019-04-16T05:57:27.431Z,69.74
2019-04-16T05:59:58.253Z,69.44
2019-04-16T06:02:32.899Z,68.84
2019-04-16T06:05:02.250Z,68.39
2019-04-16T06:07:37.711Z,68.18
2019-04-16T06:10:07.231Z,67.74
2019-04-16T06:12:54.432Z,67.17
2019-04-16T06:15:26.888Z,66.80
2019-04-16T06:17:58.491Z,66.25
2019-04-16T06:20:33.330Z,65.77
2019-04-16T06:23:07.881Z,65.77
2019-04-16T06:25:41.407Z,65.35
2019-04-16T06:28:17.462Z,64.80
2019-04-16T06:30:51.289Z,64.55
2019-04-16T06:33:32.105Z,64.55
2019-04-16T06:36:19.536Z,62.71
2019-04-16T06:38:51.391Z,62.71
2019-04-16T06:41:22.683Z,63.04
2019-04-16T06:43:58.381Z,63.04
2019-04-16T06:46:45.274Z,62.34
2019-04-16T06:49:23.714Z,62.07
2019-04-16T06:52:16.065Z,60.73
2019-04-16T06:54:52.363Z,60.22
2019-04-16T06:57:42.858Z,60.22
2019-04-16T07:00:25.166Z,59.18
2019-04-16T07:03:02.580Z,59.18
2019-04-16T07:05:48.658Z,59.17
2019-04-16T07:08:36.923Z,58.83
2019-04-16T07:10:58.674Z,58.83
2019-04-16T07:13:28.420Z,58.21
2019-04-16T07:15:58.079Z,57.62
2019-04-16T07:18:27.779Z,57.62
2019-04-16T07:20:57.508Z,58.11
2019-04-16T07:23:27.468Z,57.33
2019-04-16T07:25:57.534Z,57.66
2019-04-16T07:28:29.155Z,57.15
2019-04-16T07:31:32.879Z,56.59
2019-04-16T07:34:01.573Z,55.99
2019-04-16T07:36:32.883Z,55.66
2019-04-16T07:39:05.268Z,55.06
2019-04-16T07:41:46.155Z,55.04
2019-04-16T07:44:17.472Z,54.37
2019-04-16T07:46:54.685Z,53.28
2019-04-16T07:49:41.951Z,52.57
2019-04-16T07:52:22.161Z,53.24
2019-04-16T07:54:53.476Z,52.46
2019-04-16T07:57:23.187Z,52.27
2019-04-16T07:59:52.948Z,52.46
2019-04-16T08:02:22.587Z,52.02
2019-04-16T08:04:52.236Z,51.14
2019-04-16T08:07:21.911Z,51.02
2019-04-16T08:09:51.699Z,50.78
2019-04-16T08:12:29.885Z,50.69
2019-04-16T08:14:52.857Z,50.33
2019-04-16T08:17:22.532Z,49.27
2019-04-16T08:19:55.196Z,48.95
2019-04-16T08:22:24.541Z,49.26
2019-04-16T08:24:59.743Z,47.98
2019-04-16T08:27:27.512Z,48.22
2019-04-16T08:30:02.471Z,47.59
2019-04-16T08:32:28.639Z,47.63
2019-04-16T08:34:58.377Z,46.70
2019-04-16T08:37:28.035Z,46.38
2019-04-16T08:39:57.750Z,45.36
2019-04-16T08:42:29.515Z,45.77
2019-04-16T08:44:58.861Z,45.55
2019-04-16T08:47:28.617Z,45.17
2019-04-16T08:49:58.581Z,43.61
2019-04-16T08:52:28.587Z,42.36
2019-04-16T08:54:58.264Z,42.40
2019-04-16T08:57:31.755Z,42.22
2019-04-16T08:59:59.288Z,41.94
2019-04-16T09:02:29.335Z,41.92
2019-04-16T09:04:59.792Z,41.30
2019-04-16T09:07:41.532Z,41.68
2019-04-16T09:10:18.253Z,40.26
2019-04-16T09:12:50.751Z,41.18
2019-04-16T09:15:17.976Z,39.71
2019-04-16T09:17:49.518Z,38.20
2019-04-16T09:20:23.048Z,38.52
2019-04-16T09:22:53.821Z,36.51
2019-04-16T09:25:28.042Z,36.86
2019-04-16T09:28:02.438Z,35.83
2019-04-16T09:30:39.604Z,35.77
2019-04-16T09:33:16.878Z,36.30
2019-04-16T09:35:49.643Z,35.99
2019-04-16T09:38:21.073Z,35.64
2019-04-16T09:40:54.503Z,36.43
2019-04-16T09:43:34.847Z,35.39
2019-04-16T09:46:10.913Z,34.53
2019-04-16T09:48:35.949Z,34.53
2019-04-16T09:51:06.597Z,34.29
2019-04-16T09:53:39.985Z,34.23
2019-04-16T09:56:19.672Z,33.31
2019-04-16T09:58:49.475Z,32.78
2019-04-16T10:01:22.039Z,33.85
2019-04-16T10:03:55.957Z,33.73
2019-04-16T10:06:25.693Z,31.32
2019-04-16T10:08:56.819Z,32.42
2019-04-16T10:11:26.758Z,31.24
2019-04-16T10:13:56.541Z,31.66
2019-04-16T10:16:27.941Z,31.81
2019-04-16T10:18:57.682Z,31.54
2019-04-16T10:21:29.067Z,30.91
2019-04-16T10:24:00.328Z,31.07
2019-04-16T10:26:30.289Z,31.04
2019-04-16T10:29:05.814Z,29.80
2019-04-16T10:31:34.260Z,30.28
2019-04-16T10:34:04.034Z,29.71
2019-04-16T10:36:37.128Z,30.05
2019-04-16T10:39:20.970Z,29.92
2019-04-16T10:41:56.533Z,29.59
2019-04-16T10:44:44.140Z,29.45
2019-04-16T10:47:24.078Z,28.49
2019-04-16T10:49:55.626Z,28.33
2019-04-16T10:52:43.409Z,27.49
2019-04-16T10:55:20.530Z,27.16
2019-04-16T10:58:06.788Z,26.30
2019-04-16T11:00:54.298Z,25.23
2019-04-16T11:03:28.524Z,23.22
2019-04-16T11:06:00.078Z,24.07
2019-04-16T11:08:29.873Z,22.73
2019-04-16T11:10:59.679Z,22.56
2019-04-16T11:13:39.933Z,22.05
2019-04-16T11:16:13.752Z,21.88
2019-04-16T11:18:44.240Z,21.96
2019-04-16T11:21:14.058Z,21.22
2019-04-16T11:23:43.792Z,21.44
2019-04-16T11:26:13.526Z,20.33
2019-04-16T11:28:43.212Z,19.98
2019-04-16T11:31:14.559Z,18.97
2019-04-16T11:33:44.421Z,17.49
2019-04-16T11:36:19.394Z,17.22
2019-04-16T11:38:45.490Z,17.37
2019-04-16T11:41:15.383Z,16.50
2019-04-16T11:43:45.022Z,15.26
2019-04-16T11:46:14.870Z,14.25
2019-04-16T11:48:44.568Z,13.42
2019-04-16T11:51:14.393Z,15.99
2019-04-16T11:53:44.138Z,17.21
2019-04-16T11:56:13.816Z,13.54
2019-04-16T11:58:44.973Z,13.33
2019-04-16T12:01:23.252Z,13.73
2019-04-16T12:03:56.283Z,13.75
2019-04-16T12:06:31.399Z,14.53
2019-04-16T12:09:04.776Z,15.82
2019-04-16T12:11:42.586Z,15.53
2019-04-16T12:14:29.630Z,15.64
2019-04-16T12:17:05.398Z,15.44
2019-04-16T12:19:45.759Z,16.51
2019-04-16T12:22:22.729Z,16.84
2019-04-16T12:25:05.767Z,17.09
2019-04-16T12:27:37.139Z,16.35
2019-04-16T12:30:24.991Z,16.82
2019-04-16T12:33:14.376Z,15.90
2019-04-16T12:35:47.755Z,16.18
2019-04-16T12:38:19.031Z,17.08
2019-04-16T12:40:53.108Z,19.81
2019-04-16T12:43:27.212Z,21.17
2019-04-16T12:46:10.317Z,20.27
2019-04-16T12:48:47.190Z,20.62
2019-04-16T12:51:21.250Z,22.19
2019-04-16T12:53:53.517Z,23.40
2019-04-16T12:56:41.404Z,23.74
2019-04-16T12:59:22.083Z,22.44
2019-04-16T13:02:00.680Z,19.49
2019-04-16T13:04:41.695Z,19.36
2019-04-16T13:07:13.008Z,18.55
2019-04-16T13:09:52.948Z,17.46
2019-04-16T13:12:32.647Z,17.95
2019-04-16T13:15:19.183Z,19.78
2019-04-16T13:17:56.041Z,21.67
2019-04-16T13:20:43.125Z,22.74
2019-04-16T13:23:14.448Z,21.12
2019-04-16T13:26:00.722Z,18.35
2019-04-16T13:28:30.463Z,16.11
2019-04-16T13:31:00.107Z,14.61
2019-04-16T13:33:29.750Z,15.42
2019-04-16T13:35:59.556Z,16.55
2019-04-16T13:38:31.116Z,18.39
2019-04-16T13:41:02.184Z,19.12
2019-04-16T13:43:45.961Z,20.24
2019-04-16T13:46:15.711Z,21.21
2019-04-16T13:48:49.642Z,22.22
2019-04-16T13:51:20.972Z,22.59
2019-04-16T13:54:08.413Z,23.29
2019-04-16T13:56:42.268Z,23.63
2019-04-16T13:59:13.561Z,23.28
2019-04-16T14:01:45.994Z,24.07
2019-04-16T14:04:15.830Z,23.03
2019-04-16T14:06:46.217Z,22.87
2019-04-16T14:09:15.985Z,21.27
2019-04-16T14:11:45.622Z,19.73
2019-04-16T14:14:18.207Z,19.59
2019-04-16T14:16:47.202Z,19.75
2019-04-16T14:19:16.947Z,20.07
2019-04-16T14:21:47.100Z,19.60
2019-04-16T14:24:16.975Z,18.80
2019-04-16T14:26:46.721Z,19.26
2019-04-16T14:29:16.357Z,17.97
2019-04-16T14:31:48.953Z,17.08
2019-04-16T14:34:36.987Z,16.60
2019-04-16T14:37:06.658Z,18.13
2019-04-16T14:39:37.941Z,19.90
2019-04-16T14:42:07.782Z,21.32
2019-04-16T14:44:47.811Z,21.72
2019-04-16T14:47:17.823Z,22.88
2019-04-16T14:49:47.820Z,22.85
2019-04-16T14:52:18.994Z,21.72
2019-04-16T14:55:06.347Z,19.21
2019-04-16T14:57:39.770Z,18.43
2019-04-16T15:00:16.693Z,16.94
2019-04-16T15:02:53.681Z,16.49
2019-04-16T15:05:24.994Z,16.49
2019-04-16T15:07:56.277Z,18.07
2019-04-16T15:10:36.575Z,19.04
2019-04-16T15:13:25.662Z,18.14
2019-04-16T15:16:10.912Z,18.31
2019-04-16T15:19:04.738Z,19.44
2019-04-16T15:21:36.101Z,20.44
2019-04-16T15:24:13.096Z,21.85
2019-04-16T15:26:44.527Z,23.27
2019-04-16T15:29:15.848Z,23.94
2019-04-16T15:31:49.929Z,24.76
2019-04-16T15:34:24.028Z,25.10
2019-04-16T15:36:55.239Z,25.62
2019-04-16T15:39:26.491Z,26.01
2019-04-16T15:42:17.498Z,26.29
2019-04-16T15:44:52.638Z,26.54
2019-04-16T15:47:32.825Z,27.14
2019-04-16T15:50:04.196Z,27.10
2019-04-16T15:52:46.508Z,27.38
2019-04-16T15:55:26.230Z,27.45
2019-04-16T15:58:04.670Z,28.23
2019-04-16T16:00:52.521Z,28.04
2019-04-16T16:03:32.784Z,28.91
2019-04-16T16:06:04.276Z,29.34
2019-04-16T16:08:38.487Z,30.95
2019-04-16T16:11:08.928Z,30.74
2019-04-16T16:13:38.194Z,30.58
2019-04-16T16:16:10.475Z,30.55
2019-04-16T16:18:39.817Z,30.26
2019-04-16T16:21:09.526Z,31.22
2019-04-16T16:23:39.180Z,30.99
2019-04-16T16:26:08.847Z,30.45
2019-04-16T16:28:38.486Z,31.44
2019-04-16T16:31:08.135Z,30.26
2019-04-16T16:33:37.875Z,30.54
2019-04-16T16:36:07.580Z,27.96
2019-04-16T16:38:37.262Z,28.27
2019-04-16T16:41:06.944Z,28.35
2019-04-16T16:43:37.263Z,28.28
2019-04-16T16:46:08.568Z,28.31
2019-04-16T16:48:39.353Z,28.59
2019-04-16T16:51:09.037Z,28.93
2019-04-16T16:53:45.875Z,28.60
2019-04-16T16:56:25.957Z,29.83
2019-04-16T16:58:59.968Z,30.86
2019-04-16T17:01:34.933Z,30.78
2019-04-16T17:04:04.732Z,29.67
2019-04-16T17:06:34.120Z,30.34
2019-04-16T17:09:04.104Z,29.48
2019-04-16T17:11:35.423Z,30.25
2019-04-16T17:14:05.239Z,31.28
2019-04-16T17:16:34.870Z,31.65
2019-04-16T17:19:04.690Z,32.03
2019-04-16T17:21:34.540Z,31.63
2019-04-16T17:24:04.575Z,31.90
2019-04-16T17:26:34.549Z,32.53
2019-04-16T17:29:04.219Z,34.44
2019-04-16T17:31:36.010Z,33.49
2019-04-16T17:34:06.719Z,32.62
2019-04-16T17:36:36.345Z,33.07
2019-04-16T17:39:10.563Z,33.87
2019-04-16T17:41:57.758Z,34.24
2019-04-16T17:44:42.928Z,34.67
2019-04-16T17:47:30.807Z,35.74
2019-04-16T17:49:47.194Z,36.09
2019-04-16T17:52:27.458Z,34.91
2019-04-16T17:55:01.239Z,35.19
2019-04-16T17:57:35.083Z,35.01
2019-04-16T18:00:24.197Z,35.11
2019-04-16T18:03:10.670Z,35.68
2019-04-16T18:05:41.975Z,35.93
2019-04-16T18:08:19.188Z,35.09
2019-04-16T18:10:53.407Z,35.49
2019-04-16T18:13:31.672Z,35.73
2019-04-16T18:16:19.743Z,35.26
2019-04-16T18:18:52.935Z,35.86
2019-04-16T18:21:39.028Z,37.00
2019-04-16T18:24:28.373Z,37.12
2019-04-16T18:26:59.716Z,37.66
2019-04-16T18:29:42.588Z,37.28
2019-04-16T18:32:21.274Z,37.43
2019-04-16T18:34:58.775Z,37.74
2019-04-16T18:37:33.052Z,38.02
2019-04-16T18:40:20.195Z,38.44
2019-04-16T18:43:09.633Z,38.67
2019-04-16T18:45:58.714Z,38.97
2019-04-16T18:48:30.023Z,38.85
2019-04-16T18:51:01.420Z,39.18
2019-04-16T18:53:31.173Z,38.92
2019-04-16T18:56:00.882Z,40.37
2019-04-16T18:58:30.587Z,41.93
2019-04-16T19:01:01.958Z,41.92
2019-04-16T19:03:31.657Z,41.66
2019-04-16T19:06:01.871Z,41.51
2019-04-16T19:08:41.666Z,40.72
2019-04-16T19:11:03.660Z,40.73
2019-04-16T19:13:33.417Z,41.38
2019-04-16T19:16:03.069Z,42.11
2019-04-16T19:18:32.698Z,42.36
2019-04-16T19:21:02.344Z,42.68
2019-04-16T19:23:32.069Z,43.14
2019-04-16T19:26:01.945Z,42.45
2019-04-16T19:28:31.746Z,43.15
2019-04-16T19:31:01.446Z,43.53
2019-04-16T19:33:37.903Z,43.85
2019-04-16T19:36:02.772Z,45.39
2019-04-16T19:38:32.748Z,46.59
2019-04-16T19:41:04.045Z,46.68
2019-04-16T19:43:35.335Z,46.88
2019-04-16T19:46:05.106Z,45.96
2019-04-16T19:48:36.243Z,45.89
2019-04-16T19:51:07.372Z,46.04
2019-04-16T19:53:37.682Z,46.39
2019-04-16T19:56:07.388Z,47.06
2019-04-16T19:58:37.113Z,46.07
2019-04-16T20:01:06.843Z,46.23
2019-04-16T20:03:36.553Z,45.88
2019-04-16T20:06:06.264Z,45.50
2019-04-16T20:08:39.884Z,45.66
2019-04-16T20:11:07.392Z,46.02
2019-04-16T20:13:37.194Z,46.79
2019-04-16T20:16:06.823Z,46.14
2019-04-16T20:18:50.181Z,46.10
2019-04-16T20:21:07.811Z,46.39
2019-04-16T20:23:37.485Z,46.27
2019-04-16T20:26:07.097Z,46.72
2019-04-16T20:28:36.804Z,47.87
2019-04-16T20:31:06.735Z,48.80
2019-04-16T20:33:36.429Z,49.21
2019-04-16T20:36:06.454Z,49.01
2019-04-16T20:38:36.511Z,49.74
2019-04-16T20:41:06.172Z,48.96
2019-04-16T20:43:35.802Z,48.45
2019-04-16T20:46:05.457Z,48.57
2019-04-16T20:48:35.087Z,49.57
2019-04-16T20:51:04.798Z,50.74
2019-04-16T20:53:34.527Z,50.49
2019-04-16T20:56:04.230Z,50.14
2019-04-16T20:58:33.898Z,50.15
2019-04-16T21:01:04.306Z,50.68
2019-04-16T21:03:33.968Z,51.02
2019-04-16T21:06:07.443Z,50.54
2019-04-16T21:08:35.091Z,50.16
2019-04-16T21:11:08.828Z,51.14
2019-04-16T21:13:36.114Z,51.83
2019-04-16T21:16:05.802Z,53.56
2019-04-16T21:18:35.490Z,53.73
2019-04-16T21:21:05.185Z,54.19
2019-04-16T21:23:36.034Z,53.98
2019-04-16T21:26:05.820Z,53.94
2019-04-16T21:28:39.604Z,53.67
2019-04-16T21:34:16.322Z,54.95
2019-04-16T21:36:50.446Z,55.03
2019-04-16T21:39:24.514Z,54.90
2019-04-16T21:41:54.237Z,55.26
2019-04-16T21:44:23.859Z,55.09
2019-04-16T21:46:57.010Z,55.96
2019-04-16T21:49:37.690Z,56.03
2019-04-16T21:52:08.316Z,56.03
2019-04-16T21:54:39.360Z,56.38
2019-04-16T21:57:13.148Z,56.81
2019-04-16T21:59:40.329Z,57.76
2019-04-16T22:02:29.706Z,58.33
2019-04-16T22:04:59.396Z,58.88
2019-04-16T22:07:29.099Z,58.78
2019-04-16T22:09:58.748Z,58.66
2019-04-16T22:12:28.439Z,58.36
2019-04-16T22:14:58.110Z,58.49
2019-04-16T22:17:27.727Z,58.64
2019-04-16T22:20:01.351Z,58.98
2019-04-16T22:22:28.761Z,58.92
2019-04-16T22:24:58.420Z,59.09
2019-04-16T22:27:28.068Z,59.24
2019-04-16T22:29:57.996Z,59.34
2019-04-16T22:32:30.859Z,59.83
2019-04-16T22:34:59.185Z,60.41
2019-04-16T22:37:29.913Z,61.11
2019-04-16T22:40:06.896Z,61.49
2019-04-16T22:42:57.302Z,61.66
2019-04-16T22:45:38.373Z,61.82
2019-04-16T22:48:08.033Z,62.13
2019-04-16T22:50:38.670Z,62.50
2019-04-16T22:53:08.583Z,62.75
2019-04-16T22:55:42.342Z,63.07
2019-04-16T22:58:11.534Z,63.52
2019-04-16T23:00:44.399Z,63.77
2019-04-16T23:03:16.639Z,64.26
2019-04-16T23:05:45.501Z,64.32
2019-04-16T23:08:15.111Z,64.28
2019-04-16T23:10:44.736Z,63.72
2019-04-16T23:13:14.384Z,63.47
2019-04-16T23:15:44.108Z,63.40
2019-04-16T23:18:17.203Z,63.80
2019-04-16T23:20:45.073Z,63.53
2019-04-16T23:23:18.205Z,63.27
2019-04-16T23:25:46.107Z,63.81
2019-04-16T23:28:15.793Z,64.08
2019-04-16T23:30:48.004Z,64.10
2019-04-16T23:33:16.771Z,64.12
2019-04-16T23:35:46.406Z,64.50
2019-04-16T23:38:16.063Z,64.34
2019-04-16T23:40:45.736Z,64.61
2019-04-16T23:43:22.116Z,64.75
2019-04-16T23:46:08.586Z,65.55
2019-04-16T23:48:44.805Z,65.94
2019-04-16T23:51:34.414Z,65.91
2019-04-16T23:54:14.636Z,65.77
2019-04-16T23:56:45.899Z,65.88
2019-04-16T23:59:17.191Z,66.14
